Time;durP1;ratioP1;P1;durP2;ratioP2;P2;SDS_P1;SDS_P2;PMS_P1;PMS_P2;Temp;Humidity;BMP_temperature;BMP_pressure;BME280_temperature;BME280_humidity;BME280_pressure;Samples;Min_cycle;Max_cycle;Signal;HPM_P1;HPM_P2
2021/05/26 00:00:35;;;;;;;4.85;0.80;;;11.90;99.80;;;;;;4990826;28;20026;-73
2021/05/26 00:03:01;;;;;;;1.67;0.60;;;11.90;99.80;;;;;;4992126;28;20130;-72
2021/05/26 00:05:29;;;;;;;3.92;0.73;;;11.90;99.60;;;;;;4991865;28;20030;-71
2021/05/26 00:07:55;;;;;;;1.85;0.60;;;11.90;99.50;;;;;;4974788;28;20033;-73
2021/05/26 00:10:21;;;;;;;1.70;0.88;;;11.90;99.50;;;;;;4991442;28;20026;-72
2021/05/26 00:12:47;;;;;;;2.45;0.93;;;12.00;99.30;;;;;;4974127;28;20507;-72
2021/05/26 00:15:13;;;;;;;3.60;0.80;;;12.00;98.80;;;;;;4991654;28;20105;-73
2021/05/26 00:17:39;;;;;;;1.90;0.73;;;12.00;98.90;;;;;;4991697;28;20018;-73
2021/05/26 00:20:05;;;;;;;3.42;0.70;;;12.00;98.70;;;;;;4991590;28;20072;-71
2021/05/26 00:22:31;;;;;;;2.45;0.90;;;12.00;98.90;;;;;;4992109;28;20026;-73
2021/05/26 00:24:56;;;;;;;4.18;0.73;;;12.00;98.90;;;;;;4974069;28;20041;-73
2021/05/26 00:27:22;;;;;;;1.17;0.50;;;12.10;98.90;;;;;;4991982;28;20027;-71
2021/05/26 00:29:48;;;;;;;4.05;0.70;;;12.10;99.50;;;;;;4990471;28;20030;-71
2021/05/26 00:32:14;;;;;;;2.45;0.63;;;12.00;99.00;;;;;;4992899;28;20370;-72
2021/05/26 00:34:40;;;;;;;1.55;0.60;;;11.90;99.00;;;;;;4995751;28;20041;-72
2021/05/26 00:37:06;;;;;;;1.45;0.60;;;11.90;99.20;;;;;;4995575;28;20038;-72
2021/05/26 00:39:32;;;;;;;1.85;0.60;;;12.00;99.50;;;;;;4995213;28;20381;-73
2021/05/26 00:41:58;;;;;;;3.33;0.70;;;12.00;99.50;;;;;;4995367;28;20030;-72
2021/05/26 00:44:24;;;;;;;3.78;0.80;;;11.90;99.90;;;;;;4995282;28;20030;-71
2021/05/26 00:46:50;;;;;;;4.90;0.80;;;11.90;99.90;;;;;;4995374;28;20034;-71
2021/05/26 00:49:16;;;;;;;1.70;0.70;;;11.80;99.90;;;;;;4995683;28;20030;-72
2021/05/26 00:51:42;;;;;;;1.48;0.65;;;11.80;99.90;;;;;;4994581;28;20037;-72
2021/05/26 00:54:09;;;;;;;3.42;0.82;;;11.70;99.90;;;;;;4995007;28;20041;-73
2021/05/26 00:56:35;;;;;;;4.07;0.55;;;11.60;99.90;;;;;;4995402;28;20026;-73
2021/05/26 00:59:02;;;;;;;1.60;0.77;;;11.10;99.90;;;;;;4977692;28;20027;-72
2021/05/26 01:01:28;;;;;;;6.40;1.00;;;10.70;99.90;;;;;;4994393;28;20026;-72
2021/05/26 01:03:55;;;;;;;2.63;1.10;;;10.40;99.90;;;;;;4995156;28;20126;-72
2021/05/26 01:06:21;;;;;;;2.95;0.82;;;10.40;99.90;;;;;;4994935;28;20037;-72
2021/05/26 01:08:47;;;;;;;1.77;0.82;;;10.40;99.90;;;;;;4995239;28;20030;-72
2021/05/26 01:11:13;;;;;;;3.33;1.13;;;10.50;99.90;;;;;;4998233;28;20038;-74
2021/05/26 01:13:38;;;;;;;3.55;1.02;;;10.40;99.90;;;;;;5004072;28;20025;-72
2021/05/26 01:16:04;;;;;;;4.72;1.05;;;10.40;99.90;;;;;;5003675;28;20026;-72
2021/05/26 01:18:33;;;;;;;6.53;1.02;;;10.50;99.90;;;;;;5004243;28;20033;-73
2021/05/26 01:21:01;;;;;;;1.90;1.05;;;10.50;99.90;;;;;;4986988;28;20033;-73
2021/05/26 01:23:28;;;;;;;3.05;1.00;;;10.50;99.90;;;;;;4998060;28;20026;-72
2021/05/26 01:25:55;;;;;;;4.28;1.20;;;10.60;99.90;;;;;;4995251;28;20096;-73
2021/05/26 01:28:22;;;;;;;4.57;1.13;;;10.70;99.90;;;;;;4995052;28;20053;-72
2021/05/26 01:30:48;;;;;;;3.05;1.10;;;10.70;99.90;;;;;;4976253;28;20027;-72
2021/05/26 01:33:15;;;;;;;6.30;1.38;;;10.60;99.90;;;;;;4994808;28;20029;-74
2021/05/26 01:35:42;;;;;;;5.43;1.23;;;10.60;99.90;;;;;;4994463;28;20108;-72
2021/05/26 01:38:15;;;;;;;5.35;1.55;;;10.50;99.90;;;;;;4994741;28;20036;-72
2021/05/26 01:40:40;;;;;;;1.50;1.08;;;10.60;99.90;;;;;;4993546;28;20033;-72
2021/05/26 01:43:06;;;;;;;3.42;1.40;;;10.60;99.90;;;;;;4994151;28;20026;-72
2021/05/26 01:45:32;;;;;;;2.28;1.23;;;10.50;99.90;;;;;;4993488;28;20022;-73
2021/05/26 01:47:58;;;;;;;2.35;1.30;;;10.60;99.90;;;;;;4994282;28;20038;-72
2021/05/26 01:50:23;;;;;;;1.55;1.33;;;10.50;99.90;;;;;;4993756;28;20080;-72
2021/05/26 01:52:54;;;;;;;7.63;1.58;;;10.60;99.90;;;;;;4976794;28;20295;-73
2021/05/26 01:55:20;;;;;;;6.75;1.60;;;10.60;99.90;;;;;;4994227;28;20843;-73
2021/05/26 01:57:47;;;;;;;6.10;1.40;;;10.50;99.90;;;;;;4994435;28;20030;-73
2021/05/26 02:00:15;;;;;;;4.55;1.45;;;10.50;99.90;;;;;;5069018;23;20034;-73
2021/05/26 02:02:41;;;;;;;4.07;1.33;;;10.40;99.90;;;;;;4994068;28;20026;-74
2021/05/26 02:05:09;;;;;;;4.13;1.50;;;10.40;99.90;;;;;;4994106;28;20480;-74
2021/05/26 02:07:36;;;;;;;3.40;1.48;;;10.30;99.90;;;;;;4992795;28;20026;-73
2021/05/26 02:10:07;;;;;;;3.35;2.08;;;10.30;99.90;;;;;;4991691;28;20034;-74
2021/05/26 02:12:35;;;;;;;2.13;1.50;;;10.30;99.90;;;;;;4982291;28;20033;-73
2021/05/26 02:15:03;;;;;;;2.67;1.70;;;10.20;99.90;;;;;;4974708;28;20102;-72
2021/05/26 02:17:29;;;;;;;2.88;1.67;;;10.20;99.90;;;;;;4972696;28;20019;-72
2021/05/26 02:19:55;;;;;;;5.63;1.80;;;10.20;99.90;;;;;;4973869;28;20501;-72
2021/05/26 02:22:21;;;;;;;5.55;1.75;;;10.10;99.90;;;;;;4974115;28;20101;-72
2021/05/26 02:24:47;;;;;;;5.18;1.80;;;10.10;99.90;;;;;;4973118;28;20469;-72
2021/05/26 02:27:13;;;;;;;5.20;1.45;;;10.10;99.90;;;;;;4992110;28;20519;-72
2021/05/26 02:29:40;;;;;;;3.00;1.45;;;10.10;99.90;;;;;;5002075;28;20034;-72
2021/05/26 02:32:06;;;;;;;5.95;1.70;;;10.10;99.90;;;;;;5006065;28;20089;-73
2021/05/26 02:34:32;;;;;;;4.47;1.88;;;10.10;99.90;;;;;;4998070;28;20057;-73
2021/05/26 02:36:58;;;;;;;4.82;1.60;;;10.10;99.90;;;;;;4992520;28;20472;-73
2021/05/26 02:39:24;;;;;;;4.20;1.50;;;10.20;99.90;;;;;;4992971;28;20033;-72
2021/05/26 02:41:50;;;;;;;3.72;1.70;;;10.20;99.90;;;;;;4992909;28;20026;-74
2021/05/26 02:44:16;;;;;;;3.53;1.38;;;10.20;99.90;;;;;;4992248;28;20456;-74
2021/05/26 02:46:41;;;;;;;2.05;1.60;;;10.20;99.90;;;;;;4993197;28;20026;-73
2021/05/26 02:49:07;;;;;;;2.63;1.35;;;10.20;99.90;;;;;;4993520;28;20091;-73
2021/05/26 02:51:34;;;;;;;6.65;1.40;;;10.20;99.90;;;;;;4992379;28;20378;-72
2021/05/26 02:54:00;;;;;;;5.68;1.63;;;10.30;99.90;;;;;;4992417;28;20440;-72
2021/05/26 02:56:26;;;;;;;5.53;1.40;;;10.30;99.90;;;;;;4992614;28;20022;-72
2021/05/26 02:58:52;;;;;;;2.88;1.10;;;10.20;99.90;;;;;;4992691;28;20575;-73
2021/05/26 03:01:18;;;;;;;2.45;1.20;;;10.00;99.90;;;;;;4992551;28;20038;-72
2021/05/26 03:03:44;;;;;;;4.18;1.60;;;10.00;99.90;;;;;;4993027;28;20417;-72
2021/05/26 03:06:09;;;;;;;3.17;1.30;;;9.90;99.90;;;;;;4991383;28;20039;-72
2021/05/26 03:08:35;;;;;;;1.42;1.08;;;9.90;99.90;;;;;;4993005;28;20062;-72
2021/05/26 03:11:01;;;;;;;2.92;1.40;;;9.90;99.90;;;;;;4991974;28;20106;-73
2021/05/26 03:13:27;;;;;;;4.78;1.30;;;10.00;99.90;;;;;;4992640;28;20022;-73
2021/05/26 03:15:53;;;;;;;4.20;1.40;;;10.00;99.90;;;;;;4992642;28;20023;-72
2021/05/26 03:18:19;;;;;;;3.65;1.40;;;10.00;99.90;;;;;;4992684;28;20036;-72
2021/05/26 03:20:45;;;;;;;3.05;0.98;;;10.10;99.90;;;;;;4991842;28;20026;-73
2021/05/26 03:23:10;;;;;;;2.33;0.98;;;10.10;99.90;;;;;;4992345;28;20384;-73
2021/05/26 03:25:37;;;;;;;4.25;1.30;;;10.10;99.90;;;;;;4992652;28;20034;-74
2021/05/26 03:28:03;;;;;;;3.03;1.10;;;10.20;99.90;;;;;;4991866;28;20030;-75
2021/05/26 03:30:29;;;;;;;2.85;1.33;;;10.20;99.90;;;;;;4991851;28;20026;-75
2021/05/26 03:32:54;;;;;;;3.03;1.55;;;10.20;99.90;;;;;;4991369;28;20031;-75
2021/05/26 03:35:21;;;;;;;2.22;1.23;;;10.40;99.90;;;;;;4991992;28;20756;-74
2021/05/26 03:37:47;;;;;;;5.97;1.80;;;10.10;99.90;;;;;;4992532;28;20377;-74
2021/05/26 03:40:14;;;;;;;4.10;2.75;;;10.10;99.90;;;;;;4991550;28;20096;-74
2021/05/26 03:42:42;;;;;;;3.55;1.40;;;10.30;99.90;;;;;;4991133;28;20034;-74
2021/05/26 03:45:08;;;;;;;5.57;1.60;;;10.20;99.90;;;;;;4992047;28;20455;-74
2021/05/26 03:47:35;;;;;;;4.05;1.60;;;10.20;99.90;;;;;;4991896;28;20060;-74
2021/05/26 03:50:02;;;;;;;4.40;2.00;;;10.20;99.90;;;;;;4991434;28;20126;-74
2021/05/26 03:52:27;;;;;;;5.20;1.90;;;10.20;99.90;;;;;;4991851;28;20026;-73
2021/05/26 03:54:53;;;;;;;5.38;1.80;;;10.10;99.90;;;;;;4992205;28;20022;-74
2021/05/26 03:57:19;;;;;;;2.72;1.77;;;10.00;99.90;;;;;;4992215;28;20033;-75
2021/05/26 03:59:45;;;;;;;3.97;2.28;;;10.10;99.90;;;;;;4991241;28;20527;-75
2021/05/26 04:02:10;;;;;;;4.65;1.55;;;10.10;99.90;;;;;;4990976;28;20136;-74
2021/05/26 04:04:38;;;;;;;3.28;1.90;;;9.90;99.90;;;;;;4992337;28;20034;-74
2021/05/26 04:07:08;;;;;;;4.60;1.73;;;10.00;99.90;;;;;;4991381;28;20027;-74
2021/05/26 04:09:34;;;;;;;6.32;1.70;;;9.90;99.90;;;;;;4991532;28;20030;-74
2021/05/26 04:12:00;;;;;;;6.55;1.65;;;9.90;99.90;;;;;;4992106;28;20027;-74
2021/05/26 04:14:25;;;;;;;4.70;1.40;;;9.80;99.90;;;;;;4992457;28;20029;-76
2021/05/26 04:16:51;;;;;;;3.08;1.20;;;9.80;99.90;;;;;;4991780;28;20026;-75
2021/05/26 04:19:17;;;;;;;4.82;1.25;;;9.80;99.90;;;;;;4992528;28;20027;-76
2021/05/26 04:21:43;;;;;;;3.28;1.15;;;9.70;99.90;;;;;;4992507;28;20111;-75
2021/05/26 04:24:09;;;;;;;5.18;1.20;;;9.70;99.90;;;;;;4990149;28;20485;-75
2021/05/26 04:26:35;;;;;;;5.18;1.38;;;9.70;99.90;;;;;;4977304;28;20037;-73
2021/05/26 04:29:01;;;;;;;6.40;1.52;;;9.80;99.90;;;;;;4991319;28;20041;-76
2021/05/26 04:31:26;;;;;;;5.55;1.80;;;9.80;99.90;;;;;;4992691;28;20065;-75
2021/05/26 04:33:52;;;;;;;3.58;1.25;;;9.90;99.90;;;;;;4993234;28;20026;-75
2021/05/26 04:36:17;;;;;;;2.63;1.15;;;9.80;99.90;;;;;;4996170;28;20492;-75
2021/05/26 04:38:43;;;;;;;2.13;1.00;;;9.90;99.90;;;;;;4993825;28;20034;-75
2021/05/26 04:41:09;;;;;;;2.88;1.10;;;10.00;99.90;;;;;;4992203;28;20518;-75
2021/05/26 04:43:34;;;;;;;5.30;1.17;;;10.00;99.90;;;;;;4992890;28;20060;-76
2021/05/26 04:46:01;;;;;;;3.05;1.30;;;10.00;99.90;;;;;;4991226;28;20047;-75
2021/05/26 04:48:29;;;;;;;4.70;1.40;;;10.20;99.90;;;;;;4992613;28;20439;-75
2021/05/26 04:50:55;;;;;;;5.25;1.30;;;10.20;99.90;;;;;;4990971;28;20548;-75
2021/05/26 04:53:21;;;;;;;7.15;1.73;;;10.10;99.90;;;;;;4992479;28;20106;-76
2021/05/26 04:55:47;;;;;;;4.90;1.42;;;10.10;99.90;;;;;;4992971;28;20023;-76
2021/05/26 04:58:12;;;;;;;3.08;1.33;;;10.10;99.90;;;;;;4992444;28;20018;-75
2021/05/26 05:00:38;;;;;;;5.50;1.55;;;10.00;99.90;;;;;;4991870;28;20037;-76
2021/05/26 05:03:04;;;;;;;5.63;1.65;;;10.00;99.90;;;;;;4992987;28;20030;-76
2021/05/26 05:05:33;;;;;;;6.65;1.35;;;10.20;99.90;;;;;;4990893;28;20096;-77
2021/05/26 05:08:03;;;;;;;1.70;1.20;;;10.20;99.90;;;;;;4992821;28;20042;-75
2021/05/26 05:10:29;;;;;;;6.75;1.35;;;10.10;99.90;;;;;;4991661;28;20029;-75
2021/05/26 05:12:55;;;;;;;5.55;1.45;;;10.20;99.90;;;;;;4985614;28;20057;-75
2021/05/26 05:15:21;;;;;;;4.32;1.05;;;10.00;99.90;;;;;;4991282;28;20105;-74
2021/05/26 05:17:48;;;;;;;4.78;1.45;;;9.90;99.90;;;;;;4992323;28;20061;-74
2021/05/26 05:20:20;;;;;;;2.10;1.27;;;10.10;99.90;;;;;;4993765;28;20026;-75
2021/05/26 05:22:46;;;;;;;;;;;10.00;99.90;;;;;;4995863;28;20481;-74
2021/05/26 05:25:12;;;;;;;3.47;1.27;;;9.90;99.90;;;;;;4995118;28;19996;-74
2021/05/26 05:27:38;;;;;;;4.05;1.00;;;9.80;99.90;;;;;;4995922;28;20079;-76
2021/05/26 05:30:05;;;;;;;4.47;1.17;;;9.90;99.90;;;;;;4984368;28;20038;-76
2021/05/26 05:32:31;;;;;;;2.45;1.45;;;9.90;99.90;;;;;;4995609;28;20511;-75
2021/05/26 05:34:58;;;;;;;5.03;1.20;;;9.80;99.90;;;;;;4996802;28;20026;-73
2021/05/26 05:37:23;;;;;;;3.50;1.20;;;9.70;99.90;;;;;;4994460;28;20042;-75
2021/05/26 05:39:51;;;;;;;7.80;1.40;;;9.80;99.90;;;;;;4995132;28;20076;-74
2021/05/26 05:42:16;;;;;;;3.00;1.20;;;9.90;99.90;;;;;;4996993;28;20085;-74
2021/05/26 05:44:42;;;;;;;3.30;1.30;;;9.90;99.90;;;;;;4994542;28;20054;-74
2021/05/26 05:47:08;;;;;;;2.70;1.05;;;10.00;99.90;;;;;;4995659;28;20113;-74
2021/05/26 05:49:34;;;;;;;5.07;1.30;;;10.00;99.90;;;;;;4994533;28;20031;-75
2021/05/26 05:51:59;;;;;;;2.42;1.02;;;10.20;99.90;;;;;;4996061;28;20032;-75
2021/05/26 05:54:25;;;;;;;4.57;1.50;;;10.20;99.90;;;;;;4998922;28;20034;-76
2021/05/26 05:56:51;;;;;;;6.80;1.42;;;10.10;99.90;;;;;;4999381;28;20038;-74
2021/05/26 05:59:16;;;;;;;5.43;1.33;;;10.00;99.90;;;;;;4998062;28;20033;-74
2021/05/26 06:01:42;;;;;;;7.95;1.60;;;10.30;99.90;;;;;;4995868;28;20034;-75
2021/05/26 06:04:08;;;;;;;4.93;1.80;;;10.30;99.90;;;;;;4997507;28;20034;-74
2021/05/26 06:06:33;;;;;;;3.45;1.48;;;10.30;99.90;;;;;;4996386;28;20034;-75
2021/05/26 06:08:59;;;;;;;5.57;1.20;;;10.40;99.90;;;;;;4994984;28;20027;-74
2021/05/26 06:11:25;;;;;;;5.35;1.80;;;10.50;99.90;;;;;;4985047;28;20030;-74
2021/05/26 06:13:51;;;;;;;4.50;1.52;;;10.60;99.90;;;;;;4988774;28;20018;-76
2021/05/26 06:16:17;;;;;;;3.50;1.30;;;10.70;99.90;;;;;;4993486;28;20022;-76
2021/05/26 06:18:42;;;;;;;3.03;1.30;;;10.90;99.90;;;;;;4994697;28;20034;-75
2021/05/26 06:21:08;;;;;;;4.13;1.42;;;11.00;99.90;;;;;;4993647;28;20080;-76
2021/05/26 06:23:35;;;;;;;4.30;1.17;;;10.80;99.90;;;;;;4993575;28;20065;-77
2021/05/26 06:26:01;;;;;;;1.73;1.23;;;10.90;99.90;;;;;;4993559;28;20469;-76
2021/05/26 06:28:27;;;;;;;8.93;1.92;;;10.90;99.90;;;;;;4993966;28;20030;-76
2021/05/26 06:30:53;;;;;;;2.92;1.30;;;10.80;99.90;;;;;;4979729;28;20035;-77
2021/05/26 06:33:19;;;;;;;2.58;1.55;;;11.00;99.90;;;;;;4975394;28;20062;-76
2021/05/26 06:35:44;;;;;;;4.25;1.75;;;10.80;99.90;;;;;;4975628;28;20014;-76
2021/05/26 06:38:10;;;;;;;5.85;1.67;;;11.00;99.90;;;;;;4974960;28;20033;-75
2021/05/26 06:40:36;;;;;;;6.50;2.13;;;10.90;99.90;;;;;;4974109;28;20058;-75
2021/05/26 06:43:01;;;;;;;4.13;1.73;;;11.00;99.90;;;;;;4972475;28;20022;-72
2021/05/26 06:45:27;;;;;;;2.67;1.42;;;11.00;99.90;;;;;;4973544;28;20030;-74
2021/05/26 06:47:53;;;;;;;9.05;1.60;;;10.90;99.90;;;;;;4973958;28;20368;-73
2021/05/26 06:50:18;;;;;;;3.38;2.00;;;11.10;99.90;;;;;;4973401;28;20491;-73
2021/05/26 06:52:44;;;;;;;4.45;1.70;;;11.10;99.90;;;;;;4973907;28;20042;-73
2021/05/26 06:55:10;;;;;;;3.10;1.83;;;11.20;99.90;;;;;;4973832;28;20532;-72
2021/05/26 06:57:36;;;;;;;5.13;1.65;;;11.30;99.90;;;;;;4973630;28;20384;-73
2021/05/26 07:00:03;;;;;;;1.70;1.50;;;11.30;99.90;;;;;;4981398;28;20030;-73
2021/05/26 07:02:29;;;;;;;3.95;1.80;;;11.40;99.90;;;;;;4978777;28;20035;-74
2021/05/26 07:04:54;;;;;;;5.32;1.58;;;11.50;99.90;;;;;;4983564;28;20035;-72
2021/05/26 07:07:20;;;;;;;5.32;1.40;;;11.60;99.90;;;;;;4982426;28;20081;-74
2021/05/26 07:09:46;;;;;;;4.15;1.60;;;11.70;99.90;;;;;;4982786;28;20093;-73
2021/05/26 07:12:11;;;;;;;3.15;1.23;;;11.50;99.90;;;;;;4983056;28;20441;-75
2021/05/26 07:14:39;;;;;;;6.65;1.77;;;11.10;99.90;;;;;;5002713;28;20529;-73
2021/05/26 07:17:04;;;;;;;6.15;1.80;;;11.00;99.90;;;;;;4985142;28;20054;-74
2021/05/26 07:19:30;;;;;;;6.20;1.80;;;11.10;99.90;;;;;;4982192;28;20085;-73
2021/05/26 07:21:56;;;;;;;2.58;1.50;;;11.20;99.90;;;;;;4982202;28;20449;-74
2021/05/26 07:24:21;;;;;;;7.10;1.77;;;11.50;99.90;;;;;;4981397;28;20050;-73
2021/05/26 07:26:47;;;;;;;5.53;1.65;;;11.50;99.90;;;;;;4983360;28;20027;-74
2021/05/26 07:29:13;;;;;;;7.80;2.00;;;11.30;99.90;;;;;;4982774;28;20042;-73
2021/05/26 07:31:41;;;;;;;6.72;2.00;;;11.40;99.90;;;;;;4981403;28;20019;-74
2021/05/26 07:34:07;;;;;;;4.13;1.65;;;11.40;99.90;;;;;;4980931;28;20102;-74
2021/05/26 07:36:32;;;;;;;5.43;1.75;;;11.50;99.90;;;;;;4981584;28;20054;-73
2021/05/26 07:38:59;;;;;;;5.45;2.00;;;11.50;99.90;;;;;;4982941;28;20050;-73
2021/05/26 07:41:25;;;;;;;6.85;2.00;;;11.50;99.90;;;;;;4981675;28;20488;-74
2021/05/26 07:43:51;;;;;;;6.82;1.77;;;11.50;99.90;;;;;;4986445;28;20041;-74
2021/05/26 07:46:17;;;;;;;7.15;1.98;;;11.70;99.90;;;;;;4981894;28;20030;-73
2021/05/26 07:48:43;;;;;;;8.93;2.42;;;11.50;99.90;;;;;;4982316;28;20023;-73
2021/05/26 07:51:09;;;;;;;9.77;2.22;;;11.40;99.90;;;;;;4983359;28;20029;-73
2021/05/26 07:53:35;;;;;;;11.93;2.80;;;11.50;99.90;;;;;;4984097;28;20135;-74
2021/05/26 07:56:02;;;;;;;11.73;2.67;;;11.60;99.90;;;;;;4983212;28;20069;-73
2021/05/26 07:58:28;;;;;;;8.20;3.17;;;11.40;99.90;;;;;;4988680;28;20030;-73
2021/05/26 08:00:53;;;;;;;10.13;2.75;;;11.60;99.90;;;;;;4998503;28;20435;-73
2021/05/26 08:03:19;;;;;;;8.63;2.50;;;11.80;99.90;;;;;;4984992;28;20461;-75
2021/05/26 08:05:45;;;;;;;12.65;2.85;;;12.00;99.90;;;;;;4994034;23;20048;-74
2021/05/26 08:08:11;;;;;;;8.13;2.20;;;12.10;99.90;;;;;;5005515;28;20029;-73
2021/05/26 08:10:36;;;;;;;13.90;3.00;;;12.00;99.90;;;;;;5014293;28;20026;-72
2021/05/26 08:13:02;;;;;;;10.30;2.97;;;12.10;99.90;;;;;;5017200;28;20572;-73
2021/05/26 08:15:28;;;;;;;6.28;1.88;;;12.20;99.90;;;;;;5012452;28;20026;-73
2021/05/26 08:17:54;;;;;;;5.10;2.00;;;12.00;99.90;;;;;;5012199;28;20037;-72
2021/05/26 08:20:19;;;;;;;9.63;2.40;;;11.80;99.90;;;;;;5011638;28;20026;-73
2021/05/26 08:22:45;;;;;;;5.30;1.85;;;11.80;99.90;;;;;;5011125;28;20030;-73
2021/05/26 08:25:11;;;;;;;11.07;2.70;;;11.60;99.90;;;;;;5011500;28;20045;-73
2021/05/26 08:27:37;;;;;;;10.02;2.97;;;11.60;99.90;;;;;;5011451;28;20391;-74
2021/05/26 08:30:05;;;;;;;8.80;2.65;;;11.80;99.90;;;;;;4997494;28;20169;-73
2021/05/26 08:32:31;;;;;;;8.98;2.65;;;11.80;99.90;;;;;;4992239;28;20026;-73
2021/05/26 08:34:56;;;;;;;8.23;2.22;;;11.80;99.90;;;;;;4992296;28;20473;-72
2021/05/26 08:37:23;;;;;;;8.65;2.30;;;11.40;99.90;;;;;;4992520;28;20038;-74
2021/05/26 08:39:49;;;;;;;14.80;2.40;;;11.30;99.90;;;;;;4991646;28;20023;-72
2021/05/26 08:42:18;;;;;;;6.63;2.00;;;11.40;99.90;;;;;;4992124;28;20065;-73
2021/05/26 08:44:44;;;;;;;11.05;2.22;;;11.60;99.90;;;;;;4991855;28;20094;-75
2021/05/26 08:47:18;;;;;;;9.38;2.55;;;11.20;99.90;;;;;;4992162;28;20031;-74
2021/05/26 08:49:48;;;;;;;8.52;2.45;;;11.40;99.90;;;;;;4991379;28;20034;-73
2021/05/26 08:52:15;;;;;;;13.98;2.55;;;11.50;99.90;;;;;;4991779;28;20031;-74
2021/05/26 08:54:47;;;;;;;8.18;2.13;;;11.50;99.90;;;;;;4994426;28;20023;-72
2021/05/26 08:57:13;;;;;;;6.07;2.00;;;11.60;99.90;;;;;;4995278;28;20030;-72
2021/05/26 08:59:39;;;;;;;8.30;2.00;;;11.70;99.90;;;;;;4977095;28;20058;-74
2021/05/26 09:02:12;;;;;;;4.55;2.05;;;11.60;99.90;;;;;;4995507;28;20026;-72
2021/05/26 09:04:38;;;;;;;;;;;11.60;99.90;;;;;;4996019;28;20034;-72
2021/05/26 09:07:13;;;;;;;7.93;2.20;;;11.80;99.90;;;;;;5005268;28;19921;-70
2021/05/26 09:09:52;;;;;;;5.80;2.00;;;11.80;99.90;;;;;;4996389;28;20508;-72
2021/05/26 09:12:44;;;;;;;6.68;1.60;;;11.70;99.90;;;;;;5014917;28;20038;-72
2021/05/26 09:15:16;;;;;;;6.05;1.80;;;11.30;99.90;;;;;;5012256;28;20104;-73
2021/05/26 09:17:56;;;;;;;3.22;2.05;;;11.30;99.90;;;;;;4987767;28;20110;-72
2021/05/26 09:20:30;;;;;;;2.30;1.33;;;11.30;99.90;;;;;;4994803;28;20064;-73
2021/05/26 09:23:10;;;;;;;5.45;1.40;;;11.10;99.90;;;;;;4995342;28;20086;-72
2021/05/26 09:25:50;;;;;;;4.78;1.67;;;11.40;99.90;;;;;;4994792;28;20500;-73
2021/05/26 09:28:25;;;;;;;4.28;1.73;;;11.40;99.90;;;;;;4995443;28;20081;-73
2021/05/26 09:30:51;;;;;;;4.80;1.60;;;11.50;99.90;;;;;;4994407;28;20109;-71
2021/05/26 09:33:35;;;;;;;4.18;1.60;;;11.50;99.90;;;;;;4995159;28;20027;-74
2021/05/26 09:36:14;;;;;;;5.10;1.50;;;11.40;99.90;;;;;;4995123;28;20127;-71
2021/05/26 09:38:50;;;;;;;6.32;1.83;;;11.30;99.90;;;;;;4995621;28;20519;-71
2021/05/26 09:41:24;;;;;;;4.28;1.60;;;11.40;99.90;;;;;;5000267;28;20042;-72
2021/05/26 09:43:54;;;;;;;3.70;1.42;;;11.50;99.90;;;;;;5009510;28;20098;-75
2021/05/26 09:46:26;;;;;;;4.82;1.70;;;11.60;99.90;;;;;;4999961;28;20058;-74
2021/05/26 09:49:09;;;;;;;4.90;1.33;;;11.70;99.90;;;;;;4998536;28;20596;-73
2021/05/26 09:51:35;;;;;;;2.88;1.42;;;11.60;99.90;;;;;;4995254;28;20030;-72
2021/05/26 09:54:20;;;;;;;3.92;1.38;;;11.30;99.90;;;;;;4996530;28;20079;-71
2021/05/26 09:56:50;;;;;;;3.88;1.27;;;11.30;99.90;;;;;;4994867;28;20025;-73
2021/05/26 09:59:17;;;;;;;3.45;1.38;;;11.20;99.90;;;;;;4994073;28;20032;-71
2021/05/26 10:01:43;;;;;;;6.15;1.40;;;11.40;99.90;;;;;;4995769;28;20436;-72
2021/05/26 10:04:09;;;;;;;4.35;1.60;;;12.20;99.90;;;;;;4994488;28;20022;-72
2021/05/26 10:06:38;;;;;;;7.53;1.25;;;12.30;99.90;;;;;;4999520;28;20061;-71
2021/05/26 10:09:05;;;;;;;5.53;1.35;;;11.50;99.90;;;;;;5013873;28;20403;-72
2021/05/26 10:11:34;;;;;;;2.75;1.20;;;11.50;99.90;;;;;;5012885;28;20025;-71
2021/05/26 10:14:08;;;;;;;6.15;1.60;;;11.70;99.90;;;;;;5013659;28;20095;-72
2021/05/26 10:16:38;;;;;;;4.95;1.38;;;11.70;99.90;;;;;;5012872;28;20381;-71
2021/05/26 10:19:05;;;;;;;3.08;1.27;;;11.70;99.90;;;;;;5013652;28;20025;-72
2021/05/26 10:21:32;;;;;;;5.20;1.42;;;11.70;99.90;;;;;;5012864;28;20040;-72
2021/05/26 10:24:00;;;;;;;3.78;1.40;;;11.80;99.90;;;;;;4995799;28;20029;-71
2021/05/26 10:26:47;;;;;;;4.38;3.95;;;11.70;99.90;;;;;;5005690;28;20054;-73
2021/05/26 10:29:34;;;;;;;6.53;1.45;;;11.70;99.90;;;;;;4976389;28;20037;-73
2021/05/26 10:32:02;;;;;;;3.80;1.60;;;11.90;99.90;;;;;;4993475;28;20046;-71
2021/05/26 10:34:42;;;;;;;2.78;1.30;;;12.00;99.90;;;;;;4993389;28;20109;-71
2021/05/26 10:37:23;;;;;;;8.15;1.67;;;12.00;99.90;;;;;;4993389;28;20508;-71
2021/05/26 10:39:49;;;;;;;3.95;1.50;;;11.90;99.90;;;;;;4992857;28;20081;-71
2021/05/26 10:42:43;;;;;;;3.00;1.42;;;12.10;99.90;;;;;;4993214;28;20617;-73
2021/05/26 10:45:10;;;;;;;4.43;1.88;;;12.70;99.90;;;;;;4980865;28;20500;-74
2021/05/26 10:47:35;;;;;;;3.80;0.98;;;13.00;99.90;;;;;;4976637;28;20036;-72
2021/05/26 10:50:02;;;;;;;6.57;1.48;;;12.50;99.90;;;;;;4993144;28;20460;-72
2021/05/26 10:52:28;;;;;;;3.75;1.35;;;12.30;99.90;;;;;;4992696;28;20026;-71
2021/05/26 10:54:55;;;;;;;4.88;1.38;;;12.30;99.90;;;;;;4992993;28;20037;-71
2021/05/26 10:57:21;;;;;;;3.78;1.58;;;12.30;99.90;;;;;;4992671;28;20109;-71
2021/05/26 11:00:24;;;;;;;3.10;1.45;;;12.00;99.90;;;;;;4974517;28;20106;-70
2021/05/26 11:03:28;;;;;;;4.32;1.58;;;12.00;99.90;;;;;;4976242;28;20105;-72
2021/05/26 11:06:04;;;;;;;4.55;1.10;;;12.00;99.90;;;;;;4993162;28;20090;-71
2021/05/26 11:08:46;;;;;;;2.60;0.95;;;12.10;99.90;;;;;;4994430;28;20051;-73
2021/05/26 11:11:23;;;;;;;1.70;1.00;;;12.00;99.90;;;;;;4992819;28;20085;-72
2021/05/26 11:14:08;;;;;;;2.40;1.38;;;12.00;99.90;;;;;;4993748;28;20034;-71
2021/05/26 11:16:39;;;;;;;2.53;0.93;;;11.90;99.90;;;;;;4994772;28;20018;-71
2021/05/26 11:19:16;;;;;;;4.40;1.30;;;11.90;99.90;;;;;;4993882;28;20477;-72
2021/05/26 11:21:58;;;;;;;3.78;1.40;;;11.70;99.90;;;;;;4992721;28;20875;-73
2021/05/26 11:24:25;;;;;;;;;;;11.90;99.90;;;;;;4994040;28;20034;-73
2021/05/26 11:26:51;;;;;;;1.73;1.38;;;12.00;99.90;;;;;;4993341;28;19909;-74
2021/05/26 11:29:33;;;;;;;6.55;1.42;;;11.90;99.90;;;;;;4992680;28;20034;-73
2021/05/26 11:32:05;;;;;;;49.15;6.22;;;11.90;99.90;;;;;;4991607;28;20036;-73
2021/05/26 11:34:31;;;;;;;6.40;1.80;;;12.20;99.90;;;;;;4991928;28;20038;-71
2021/05/26 11:36:56;;;;;;;4.50;0.93;;;12.30;99.90;;;;;;4991030;28;20033;-72
2021/05/26 11:39:27;;;;;;;4.90;1.05;;;12.40;99.90;;;;;;4991635;28;20026;-73
2021/05/26 11:42:14;;;;;;;2.72;0.90;;;12.60;99.90;;;;;;4993799;28;20022;-74
2021/05/26 11:44:45;;;;;;;2.88;0.93;;;12.30;99.90;;;;;;4994588;28;20034;-75
2021/05/26 11:47:11;;;;;;;11.65;7.20;;;12.20;99.90;;;;;;4992035;28;20130;-71
2021/05/26 11:49:40;;;;;;;3.50;1.15;;;12.30;99.90;;;;;;4991712;28;20135;-72
2021/05/26 11:52:12;;;;;;;3.22;1.30;;;12.50;99.90;;;;;;4993815;28;20034;-75
2021/05/26 11:54:52;;;;;;;3.00;1.23;;;12.30;99.90;;;;;;4995115;28;20026;-75
2021/05/26 11:57:18;;;;;;;2.30;1.50;;;12.40;99.90;;;;;;4994089;28;20045;-76
2021/05/26 11:59:51;;;;;;;5.80;1.20;;;12.40;99.90;;;;;;4992169;28;20057;-75
2021/05/26 12:02:17;;;;;;;3.95;1.15;;;12.30;99.90;;;;;;4992759;28;20031;-75
2021/05/26 12:04:43;;;;;;;1.90;1.08;;;12.20;99.90;;;;;;5000024;28;20027;-75
2021/05/26 12:07:09;;;;;;;2.50;1.20;;;12.50;99.90;;;;;;5002088;28;20052;-75
2021/05/26 12:09:35;;;;;;;1.77;1.00;;;12.50;99.90;;;;;;5010792;28;20376;-74
2021/05/26 12:12:16;;;;;;;0.88;0.88;;;12.40;99.90;;;;;;5011143;28;20037;-77
2021/05/26 12:14:43;;;;;;;1.33;0.95;;;12.60;99.90;;;;;;4990102;28;20026;-77
2021/05/26 12:17:10;;;;;;;1.45;0.70;;;12.50;99.90;;;;;;4990352;28;20033;-75
2021/05/26 12:19:35;;;;;;;1.30;0.85;;;12.50;99.90;;;;;;4991421;28;20029;-75
2021/05/26 12:22:17;;;;;;;0.70;0.70;;;12.40;99.90;;;;;;4991513;28;20027;-76
2021/05/26 12:24:55;;;;;;;7.72;1.85;;;12.50;99.90;;;;;;5007023;28;20038;-75
2021/05/26 12:27:57;;;;;;;0.75;0.75;;;12.70;99.90;;;;;;5011402;28;20392;-75
2021/05/26 12:30:30;;;;;;;1.77;0.98;;;12.90;99.90;;;;;;4993560;28;20030;-77
2021/05/26 12:33:11;;;;;;;1.48;1.17;;;12.80;99.90;;;;;;4997037;28;20029;-76
2021/05/26 12:35:38;;;;;;;1.85;1.05;;;12.90;99.90;;;;;;4996995;28;20109;-75
2021/05/26 12:38:19;;;;;;;2.28;0.90;;;12.80;99.90;;;;;;4995266;28;20034;-77
2021/05/26 12:40:45;;;;;;;4.38;0.95;;;12.70;99.90;;;;;;4996185;28;20082;-76
2021/05/26 12:43:30;;;;;;;2.67;0.70;;;12.60;99.90;;;;;;4995741;28;20022;-77
2021/05/26 12:45:57;;;;;;;4.45;0.90;;;12.80;99.90;;;;;;4996164;28;20584;-76
2021/05/26 12:48:29;;;;;;;2.83;2.45;;;12.80;99.90;;;;;;4995071;28;20026;-75
2021/05/26 12:51:00;;;;;;;2.17;1.20;;;13.00;99.90;;;;;;4994124;28;20499;-76
2021/05/26 12:53:31;;;;;;;3.25;0.60;;;13.30;99.90;;;;;;4994582;28;20740;-76